Time;durP1;ratioP1;P1;durP2;ratioP2;P2;SDS_P1;SDS_P2;PMS_P1;PMS_P2;Temp;Humidity;BMP_temperature;BMP_pressure;BME280_temperature;BME280_humidity;BME280_pressure;Samples;Min_cycle;Max_cycle;Signal;HPM_P1;HPM_P2
2021/05/25 00:00:26;;;;;;;1.83;1.40;;;17.80;99.90;;;;;;5014568;28;20499;-47
2021/05/25 00:02:52;;;;;;;2.20;2.00;;;17.80;99.90;;;;;;5014619;28;20446;-48
2021/05/25 00:05:21;;;;;;;1.50;1.17;;;17.70;99.90;;;;;;5014405;28;20819;-46
2021/05/25 00:07:47;;;;;;;1.93;1.70;;;17.70;99.90;;;;;;5014242;28;20900;-51
2021/05/25 00:10:15;;;;;;;2.80;1.40;;;17.60;99.90;;;;;;5014186;28;20461;-50
2021/05/25 00:12:42;;;;;;;2.13;1.40;;;17.60;99.90;;;;;;5014305;28;20460;-48
2021/05/25 00:15:11;;;;;;;4.40;1.97;;;17.60;99.90;;;;;;5014328;28;20484;-49
2021/05/25 00:17:37;;;;;;;2.10;1.67;;;17.50;99.90;;;;;;5014473;28;20921;-48
2021/05/25 00:20:05;;;;;;;3.20;1.63;;;17.50;99.90;;;;;;5014288;28;20476;-48
2021/05/25 00:22:31;;;;;;;3.60;1.47;;;17.40;99.90;;;;;;5014456;28;20461;-50
2021/05/25 00:24:57;;;;;;;1.73;1.03;;;17.30;99.90;;;;;;5014466;28;20506;-50
2021/05/25 00:27:24;;;;;;;2.70;1.50;;;17.20;99.90;;;;;;5014565;28;20806;-51
2021/05/25 00:29:53;;;;;;;4.90;1.40;;;17.10;99.90;;;;;;5014216;28;20931;-50
2021/05/25 00:32:20;;;;;;;2.70;1.37;;;17.00;99.90;;;;;;5014182;28;20912;-49
2021/05/25 00:34:46;;;;;;;1.70;1.30;;;16.80;99.90;;;;;;5014218;28;20477;-48
2021/05/25 00:37:12;;;;;;;2.33;2.03;;;16.70;99.90;;;;;;5014216;28;20831;-47
2021/05/25 00:39:38;;;;;;;2.23;1.20;;;16.60;99.90;;;;;;5014506;28;20531;-47
2021/05/25 00:42:05;;;;;;;1.60;1.33;;;16.50;99.90;;;;;;5014488;28;20441;-50
2021/05/25 00:44:32;;;;;;;2.33;1.30;;;16.50;99.90;;;;;;5014409;28;20449;-49
2021/05/25 00:46:59;;;;;;;2.77;1.73;;;16.40;99.90;;;;;;5014320;28;20448;-47
2021/05/25 00:49:26;;;;;;;3.10;1.37;;;16.40;99.90;;;;;;5014437;28;20457;-50
2021/05/25 00:51:52;;;;;;;9.20;2.13;;;16.30;99.90;;;;;;5014497;28;20779;-47
2021/05/25 00:54:18;;;;;;;2.73;1.10;;;16.30;99.90;;;;;;5014389;28;20496;-51
2021/05/25 00:56:44;;;;;;;5.50;2.00;;;16.20;99.90;;;;;;5013515;28;20523;-48
2021/05/25 00:59:10;;;;;;;6.40;1.57;;;16.20;99.90;;;;;;5014360;28;20449;-50
2021/05/25 01:01:38;;;;;;;1.30;1.10;;;16.10;99.90;;;;;;5014291;28;20877;-49
2021/05/25 01:04:05;;;;;;;2.10;1.57;;;16.10;99.90;;;;;;5014010;28;20437;-51
2021/05/25 01:06:32;;;;;;;2.47;1.13;;;16.10;99.90;;;;;;5014171;28;20495;-48
2021/05/25 01:09:00;;;;;;;2.90;1.57;;;16.00;99.90;;;;;;5014475;28;21101;-46
2021/05/25 01:11:27;;;;;;;2.70;2.50;;;16.00;99.90;;;;;;5018423;28;20492;-46
2021/05/25 01:13:55;;;;;;;2.00;1.43;;;15.90;99.90;;;;;;5018168;28;20481;-47
2021/05/25 01:16:23;;;;;;;2.10;1.60;;;15.80;99.90;;;;;;5018237;28;20451;-47
2021/05/25 01:18:50;;;;;;;3.47;1.83;;;15.80;99.90;;;;;;5018083;28;20562;-48
2021/05/25 01:21:16;;;;;;;1.47;1.10;;;15.60;99.90;;;;;;5017965;28;20441;-46
2021/05/25 01:23:44;;;;;;;2.40;1.40;;;15.50;99.90;;;;;;5017752;28;20449;-47
2021/05/25 01:26:11;;;;;;;2.30;1.40;;;15.40;99.90;;;;;;5018079;28;20448;-47
2021/05/25 01:28:38;;;;;;;1.90;1.30;;;15.30;99.90;;;;;;5018134;28;20471;-54
2021/05/25 01:31:06;;;;;;;1.60;1.20;;;15.30;99.90;;;;;;5019309;28;20920;-47
2021/05/25 01:33:35;;;;;;;3.00;2.30;;;15.30;99.90;;;;;;5019279;28;20815;-52
2021/05/25 01:36:05;;;;;;;4.10;1.70;;;15.20;99.90;;;;;;5018598;28;20464;-52
2021/05/25 01:38:32;;;;;;;1.40;1.20;;;15.20;99.90;;;;;;5017657;28;20433;-51
2021/05/25 01:41:02;;;;;;;2.83;1.40;;;15.20;99.90;;;;;;5017563;28;20459;-52
2021/05/25 01:43:28;;;;;;;1.53;1.30;;;15.20;99.90;;;;;;5017550;28;20787;-49
2021/05/25 01:45:54;;;;;;;1.87;1.50;;;15.20;99.90;;;;;;5017451;28;20487;-48
2021/05/25 01:48:21;;;;;;;3.67;1.50;;;15.20;99.90;;;;;;5017562;28;20506;-46
2021/05/25 01:50:47;;;;;;;2.30;1.57;;;15.20;99.90;;;;;;5017198;28;20848;-51
2021/05/25 01:53:15;;;;;;;4.83;1.43;;;15.20;99.90;;;;;;5017053;28;20457;-49
2021/05/25 01:55:43;;;;;;;2.23;1.37;;;15.20;99.90;;;;;;5017255;28;20445;-48
2021/05/25 01:58:12;;;;;;;2.17;1.90;;;15.20;99.90;;;;;;5017278;28;20455;-51
2021/05/25 02:00:40;;;;;;;1.87;1.63;;;15.20;99.90;;;;;;5017143;28;20457;-47
2021/05/25 02:03:07;;;;;;;1.87;1.60;;;15.20;99.90;;;;;;5016907;28;20449;-50
2021/05/25 02:05:34;;;;;;;1.87;1.40;;;15.10;99.90;;;;;;5017397;28;20459;-53
2021/05/25 02:08:01;;;;;;;1.87;1.50;;;15.20;99.90;;;;;;5017089;28;20457;-51
2021/05/25 02:10:31;;;;;;;1.53;1.40;;;15.10;99.90;;;;;;5017078;28;20449;-50
2021/05/25 02:12:59;;;;;;;2.90;1.63;;;15.00;99.90;;;;;;5017104;28;20895;-49
2021/05/25 02:15:27;;;;;;;4.23;1.63;;;15.00;99.90;;;;;;5017013;28;20703;-47
2021/05/25 02:17:54;;;;;;;4.23;2.07;;;15.00;99.90;;;;;;5016816;28;20899;-47
2021/05/25 02:20:20;;;;;;;5.03;1.70;;;15.00;99.90;;;;;;5016473;28;20982;-47
2021/05/25 02:22:46;;;;;;;2.63;1.90;;;14.90;99.90;;;;;;5016348;28;20774;-47
2021/05/25 02:25:13;;;;;;;5.10;2.30;;;14.90;99.90;;;;;;5016804;28;20445;-47
2021/05/25 02:27:39;;;;;;;5.17;1.93;;;14.80;99.90;;;;;;5016965;28;20795;-46
2021/05/25 02:30:07;;;;;;;2.77;1.60;;;14.80;99.90;;;;;;5016610;28;20456;-48
2021/05/25 02:32:34;;;;;;;2.60;1.63;;;14.80;99.90;;;;;;5016697;28;20456;-47
2021/05/25 02:35:00;;;;;;;2.50;1.73;;;14.80;99.90;;;;;;5016645;28;20476;-50
2021/05/25 02:37:26;;;;;;;4.07;1.70;;;14.70;99.90;;;;;;5016309;28;20473;-49
2021/05/25 02:39:52;;;;;;;5.53;1.60;;;14.70;99.90;;;;;;5016509;28;20445;-50
2021/05/25 02:42:19;;;;;;;3.10;1.93;;;14.70;99.90;;;;;;5016436;28;20448;-46
2021/05/25 02:44:45;;;;;;;4.10;1.83;;;14.70;99.90;;;;;;5016588;28;20465;-46
2021/05/25 02:47:11;;;;;;;6.87;2.13;;;14.70;99.90;;;;;;5016416;28;20452;-46
2021/05/25 02:49:38;;;;;;;3.50;1.83;;;14.70;99.90;;;;;;5016446;28;20441;-47
2021/05/25 02:52:04;;;;;;;2.67;1.90;;;14.70;99.90;;;;;;5016241;28;20465;-46
2021/05/25 02:54:31;;;;;;;7.83;2.10;;;14.70;99.90;;;;;;5015979;28;20476;-51
2021/05/25 02:56:57;;;;;;;2.30;1.83;;;14.80;99.90;;;;;;5016029;28;20456;-49
2021/05/25 02:59:23;;;;;;;3.00;1.87;;;14.80;99.90;;;;;;5016015;28;20449;-50
2021/05/25 03:01:49;;;;;;;2.93;1.80;;;14.80;99.90;;;;;;5016177;28;20515;-51
2021/05/25 03:04:15;;;;;;;2.03;1.40;;;14.90;99.90;;;;;;5015955;28;20452;-48
2021/05/25 03:06:42;;;;;;;3.60;2.73;;;14.80;99.90;;;;;;5015889;28;20448;-50
2021/05/25 03:09:09;;;;;;;2.90;2.03;;;14.90;99.90;;;;;;5015850;28;20457;-52
2021/05/25 03:11:35;;;;;;;3.97;2.60;;;14.90;99.90;;;;;;5015863;28;20507;-50
2021/05/25 03:14:01;;;;;;;4.13;1.70;;;14.90;99.90;;;;;;5015851;28;20477;-48
2021/05/25 03:16:27;;;;;;;2.20;1.70;;;14.90;99.90;;;;;;5015947;28;20523;-51
2021/05/25 03:18:53;;;;;;;3.47;2.00;;;14.90;99.90;;;;;;5015705;28;20444;-52
2021/05/25 03:21:20;;;;;;;3.20;2.00;;;14.90;99.90;;;;;;5015614;28;20421;-47
2021/05/25 03:23:47;;;;;;;5.03;2.30;;;14.80;99.90;;;;;;4998410;28;20449;-50
2021/05/25 03:26:13;;;;;;;4.07;1.70;;;14.80;99.90;;;;;;5015416;28;20908;-46
2021/05/25 03:28:39;;;;;;;2.50;2.03;;;14.80;99.90;;;;;;5015553;28;20799;-47
2021/05/25 03:31:08;;;;;;;2.73;2.27;;;14.80;99.90;;;;;;5015466;28;20449;-53
2021/05/25 03:33:34;;;;;;;3.80;1.80;;;14.80;99.90;;;;;;5015278;28;20445;-53
2021/05/25 03:36:00;;;;;;;2.07;1.87;;;14.80;99.90;;;;;;5015091;28;20450;-48
2021/05/25 03:38:27;;;;;;;3.13;2.10;;;14.70;99.90;;;;;;5015415;28;20434;-51
2021/05/25 03:40:53;;;;;;;2.90;1.60;;;14.70;99.90;;;;;;5015462;28;20445;-46
2021/05/25 03:43:20;;;;;;;4.70;2.43;;;14.70;99.90;;;;;;5015389;28;20520;-47
2021/05/25 03:45:46;;;;;;;2.30;1.63;;;14.60;99.90;;;;;;5015279;28;20453;-49
2021/05/25 03:48:12;;;;;;;2.57;1.60;;;14.60;99.90;;;;;;5015323;28;20449;-50
2021/05/25 03:50:38;;;;;;;3.77;1.97;;;14.60;99.90;;;;;;5015063;28;20453;-49
2021/05/25 03:53:05;;;;;;;3.23;1.70;;;14.70;99.90;;;;;;5014898;28;20464;-47
2021/05/25 03:55:41;;;;;;;2.93;2.00;;;14.70;99.90;;;;;;5015229;28;20765;-52
2021/05/25 04:00:54;;;;;;;3.37;1.73;;;14.80;99.90;;;;;;5015041;28;20519;-46
2021/05/25 04:03:21;;;;;;;3.70;1.93;;;14.80;99.90;;;;;;5015361;28;20477;-46
2021/05/25 04:05:47;;;;;;;4.40;2.33;;;14.80;99.90;;;;;;5015259;28;20445;-47
2021/05/25 04:08:14;;;;;;;4.10;2.13;;;14.80;99.90;;;;;;5015313;28;20468;-46
2021/05/25 04:10:40;;;;;;;3.27;2.70;;;14.70;99.90;;;;;;5015162;28;20453;-46
2021/05/25 04:13:06;;;;;;;2.87;2.57;;;14.70;99.90;;;;;;5015612;28;20456;-46
2021/05/25 04:15:34;;;;;;;6.80;2.93;;;14.80;99.90;;;;;;5016635;28;20477;-47
2021/05/25 04:18:01;;;;;;;6.27;3.43;;;14.80;99.90;;;;;;5016404;28;20461;-57
2021/05/25 04:20:27;;;;;;;6.47;2.80;;;14.80;99.90;;;;;;5015811;28;20942;-48
2021/05/25 04:22:54;;;;;;;5.23;2.97;;;14.80;99.90;;;;;;5015070;28;20480;-48
2021/05/25 04:25:21;;;;;;;5.07;3.03;;;14.80;99.90;;;;;;5015580;28;20449;-51
2021/05/25 04:27:47;;;;;;;5.53;2.53;;;14.80;99.90;;;;;;5015940;28;20457;-48
2021/05/25 04:30:14;;;;;;;4.23;3.00;;;14.80;99.90;;;;;;5016013;28;20445;-52
2021/05/25 04:32:41;;;;;;;3.73;2.40;;;14.80;99.90;;;;;;5016800;28;20511;-52
2021/05/25 04:35:08;;;;;;;4.03;2.80;;;14.80;99.90;;;;;;5016047;28;20484;-52
2021/05/25 04:37:34;;;;;;;3.67;2.30;;;14.80;99.90;;;;;;5014987;28;20870;-50
2021/05/25 04:40:01;;;;;;;3.20;2.10;;;14.80;99.90;;;;;;5014643;28;20757;-52
2021/05/25 04:42:27;;;;;;;4.37;2.60;;;14.80;99.90;;;;;;5014594;28;20445;-51
2021/05/25 04:44:53;;;;;;;2.27;1.80;;;14.80;99.90;;;;;;5014081;28;20800;-52
2021/05/25 04:47:19;;;;;;;4.03;2.00;;;14.70;99.90;;;;;;5014553;28;20837;-49
2021/05/25 04:49:46;;;;;;;2.80;2.40;;;14.80;99.90;;;;;;5014591;28;20445;-47
2021/05/25 04:52:12;;;;;;;3.43;2.50;;;14.70;99.90;;;;;;5014573;28;20461;-49
2021/05/25 04:54:38;;;;;;;3.40;2.87;;;14.70;99.90;;;;;;5014511;28;20484;-50
2021/05/25 04:57:05;;;;;;;2.87;2.40;;;14.80;99.90;;;;;;5015429;28;20453;-48
2021/05/25 04:59:31;;;;;;;4.90;3.13;;;14.80;99.90;;;;;;5016248;28;20461;-50
2021/05/25 05:01:57;;;;;;;4.67;2.27;;;14.80;99.90;;;;;;5016356;28;20468;-50
2021/05/25 05:04:23;;;;;;;3.17;1.60;;;14.90;99.90;;;;;;5017309;28;20441;-47
2021/05/25 05:06:50;;;;;;;3.60;2.50;;;14.90;99.90;;;;;;5017799;28;20791;-45
2021/05/25 05:09:16;;;;;;;4.10;2.33;;;15.00;99.90;;;;;;5016312;28;20445;-47
2021/05/25 05:11:42;;;;;;;7.80;2.50;;;15.00;99.90;;;;;;5016241;28;20445;-48
2021/05/25 05:14:08;;;;;;;3.30;2.17;;;15.10;99.90;;;;;;5016388;28;20489;-45
2021/05/25 05:16:34;;;;;;;9.00;2.40;;;15.10;99.90;;;;;;5017932;28;20516;-45
2021/05/25 05:19:01;;;;;;;5.17;3.07;;;15.10;99.90;;;;;;5016112;28;20865;-44
2021/05/25 05:21:27;;;;;;;5.60;2.77;;;15.00;99.90;;;;;;5016404;28;20507;-49
2021/05/25 05:23:54;;;;;;;2.90;2.60;;;15.00;99.90;;;;;;5014503;28;20548;-46
2021/05/25 05:26:21;;;;;;;4.17;2.93;;;15.00;99.90;;;;;;5013832;28;20510;-46
2021/05/25 05:28:47;;;;;;;3.70;2.80;;;15.00;99.90;;;;;;5016154;28;20766;-47
2021/05/25 05:31:14;;;;;;;3.33;2.40;;;15.00;99.90;;;;;;5016431;28;20460;-50
2021/05/25 05:33:40;;;;;;;3.80;2.00;;;14.90;99.90;;;;;;5015666;28;20461;-51
2021/05/25 05:36:07;;;;;;;4.00;2.20;;;14.80;99.90;;;;;;5015707;28;20487;-49
2021/05/25 05:38:33;;;;;;;4.10;2.33;;;14.70;99.90;;;;;;5015990;28;20433;-50
2021/05/25 05:41:04;;;;;;;3.77;1.90;;;14.70;99.90;;;;;;5015996;28;20472;-53
2021/05/25 05:43:31;;;;;;;2.60;2.10;;;14.60;99.90;;;;;;5016057;28;20437;-51
2021/05/25 05:45:59;;;;;;;3.43;2.00;;;14.50;99.90;;;;;;5014155;28;20795;-43
2021/05/25 05:48:25;;;;;;;2.17;1.80;;;14.50;99.90;;;;;;5014462;28;20541;-52
2021/05/25 05:50:52;;;;;;;2.23;1.30;;;14.40;99.90;;;;;;5014847;28;20812;-49
2021/05/25 05:53:18;;;;;;;3.00;2.10;;;14.50;99.90;;;;;;5014208;28;20464;-48
2021/05/25 05:55:44;;;;;;;3.90;2.03;;;14.50;99.90;;;;;;5017564;28;20488;-48
2021/05/25 05:58:11;;;;;;;3.23;1.93;;;14.50;99.90;;;;;;5019460;28;20469;-48
2021/05/25 06:00:38;;;;;;;3.30;2.47;;;14.50;99.90;;;;;;5019404;28;20970;-50
2021/05/25 06:03:04;;;;;;;3.73;2.70;;;14.50;99.90;;;;;;5019926;28;20472;-48
2021/05/25 06:05:31;;;;;;;1.60;1.50;;;14.50;99.90;;;;;;5019430;28;20957;-50
2021/05/25 06:07:57;;;;;;;10.00;2.27;;;14.50;99.90;;;;;;5019546;28;20463;-50
2021/05/25 06:10:27;;;;;;;2.43;1.50;;;14.50;99.90;;;;;;5019316;28;20908;-46
2021/05/25 06:12:54;;;;;;;3.00;2.00;;;14.40;99.90;;;;;;5019313;28;20449;-53
2021/05/25 06:15:21;;;;;;;3.03;2.10;;;14.40;99.90;;;;;;5018972;28;20544;-47
2021/05/25 06:17:47;;;;;;;3.10;1.50;;;14.40;99.90;;;;;;5019130;28;20460;-53
2021/05/25 06:20:14;;;;;;;2.50;1.40;;;14.40;99.90;;;;;;5019080;28;20456;-52
2021/05/25 06:22:40;;;;;;;4.47;2.50;;;14.30;99.90;;;;;;5018772;28;20511;-47
2021/05/25 06:25:07;;;;;;;2.80;1.50;;;14.30;99.90;;;;;;5018494;28;20534;-52
2021/05/25 06:27:34;;;;;;;2.10;1.40;;;14.40;99.90;;;;;;5018869;28;20460;-47
2021/05/25 06:30:00;;;;;;;5.90;1.53;;;14.40;99.90;;;;;;5018928;28;20457;-48
2021/05/25 06:32:27;;;;;;;3.40;1.30;;;14.30;99.90;;;;;;5018676;28;20827;-47
2021/05/25 06:34:54;;;;;;;2.20;1.50;;;14.40;99.90;;;;;;5017517;28;20481;-47
2021/05/25 06:37:20;;;;;;;1.93;1.70;;;14.40;99.90;;;;;;5017339;28;20480;-49
2021/05/25 06:39:46;;;;;;;2.30;1.50;;;14.20;99.90;;;;;;5017903;28;20465;-46
2021/05/25 06:42:13;;;;;;;3.40;2.17;;;14.20;99.90;;;;;;5017445;28;20441;-45
2021/05/25 06:44:39;;;;;;;2.80;1.43;;;14.20;99.90;;;;;;5017212;28;20453;-49
2021/05/25 06:47:05;;;;;;;1.40;1.10;;;14.20;99.90;;;;;;5017603;28;20449;-44
2021/05/25 06:49:32;;;;;;;1.90;1.47;;;14.20;99.90;;;;;;5017401;28;20453;-49
2021/05/25 06:51:58;;;;;;;5.93;1.67;;;14.10;99.90;;;;;;5017048;28;20456;-44
2021/05/25 06:54:25;;;;;;;4.67;1.73;;;14.10;99.90;;;;;;5015918;28;20488;-48
2021/05/25 06:56:51;;;;;;;2.53;1.60;;;14.10;99.90;;;;;;5016771;28;20452;-48
2021/05/25 06:59:17;;;;;;;5.33;3.10;;;14.00;99.90;;;;;;5017101;28;20476;-47
2021/05/25 07:01:43;;;;;;;4.73;2.23;;;14.00;99.90;;;;;;5019255;28;20488;-49
2021/05/25 07:04:09;;;;;;;2.53;1.20;;;14.00;99.90;;;;;;5016399;28;20444;-48
2021/05/25 07:06:37;;;;;;;2.13;1.63;;;14.10;99.90;;;;;;5016618;28;20444;-44
2021/05/25 07:09:04;;;;;;;1.93;1.30;;;14.10;99.90;;;;;;5016026;28;20445;-47
2021/05/25 07:11:30;;;;;;;4.37;1.20;;;14.10;99.90;;;;;;5017160;28;20452;-46
2021/05/25 07:13:57;;;;;;;3.63;1.47;;;14.10;99.90;;;;;;5016051;28;20444;-46
2021/05/25 07:16:25;;;;;;;1.47;1.30;;;14.10;99.90;;;;;;5016011;28;20449;-47
2021/05/25 07:18:51;;;;;;;2.23;1.03;;;14.20;99.90;;;;;;5016905;28;20453;-48
2021/05/25 07:21:17;;;;;;;3.17;1.77;;;14.20;99.90;;;;;;5016591;28;20511;-49
2021/05/25 07:23:44;;;;;;;1.73;1.57;;;14.20;99.90;;;;;;5015235;28;20445;-48
2021/05/25 07:26:10;;;;;;;2.03;1.37;;;14.20;99.90;;;;;;5015492;28;20460;-47
2021/05/25 07:28:36;;;;;;;2.17;1.50;;;14.30;99.90;;;;;;5016456;28;20465;-49
2021/05/25 07:31:03;;;;;;;5.90;1.50;;;14.30;99.90;;;;;;5016699;28;20448;-47
2021/05/25 07:33:29;;;;;;;1.80;1.00;;;14.30;99.90;;;;;;5015575;28;20499;-48
2021/05/25 07:35:55;;;;;;;3.00;1.40;;;14.20;99.90;;;;;;5015311;28;20495;-48
2021/05/25 07:38:22;;;;;;;2.77;1.10;;;14.20;99.90;;;;;;5016229;28;21081;-46
2021/05/25 07:40:50;;;;;;;3.47;2.27;;;14.10;99.90;;;;;;5015885;28;20437;-48
2021/05/25 07:43:16;;;;;;;3.13;1.20;;;14.20;99.90;;;;;;5015787;28;20445;-50
2021/05/25 07:45:43;;;;;;;2.20;1.17;;;14.10;99.90;;;;;;5015418;28;20537;-46
2021/05/25 07:48:09;;;;;;;2.00;1.30;;;14.10;99.90;;;;;;5015843;28;20449;-49
2021/05/25 07:50:35;;;;;;;2.33;1.50;;;14.20;99.90;;;;;;5016683;28;20468;-49
2021/05/25 07:53:02;;;;;;;3.63;1.70;;;14.30;99.90;;;;;;5015418;28;20461;-46
2021/05/25 07:55:30;;;;;;;2.30;1.37;;;14.30;99.90;;;;;;5016526;28;20485;-47
2021/05/25 07:57:59;;;;;;;2.53;1.40;;;14.30;99.90;;;;;;5016800;28;20826;-47
2021/05/25 08:00:27;;;;;;;2.33;1.40;;;14.40;99.90;;;;;;5016387;28;20464;-47
2021/05/25 08:02:54;;;;;;;3.27;2.13;;;14.40;99.90;;;;;;5016118;28;20484;-46
2021/05/25 08:05:22;;;;;;;1.43;1.20;;;14.40;99.90;;;;;;5012526;28;20454;-50
2021/05/25 08:07:49;;;;;;;5.43;1.10;;;14.40;99.90;;;;;;5012829;28;20871;-47
2021/05/25 08:10:16;;;;;;;3.73;1.50;;;14.30;99.90;;;;;;5015000;28;20551;-47
2021/05/25 08:12:42;;;;;;;3.00;1.03;;;14.30;99.90;;;;;;5012502;28;20454;-48
2021/05/25 08:15:12;;;;;;;1.87;1.27;;;14.30;99.90;;;;;;5013406;28;20970;-48
2021/05/25 08:17:51;;;;;;;2.00;1.57;;;14.40;99.90;;;;;;5015750;28;20456;-47
2021/05/25 08:20:19;;;;;;;3.17;1.47;;;14.50;99.90;;;;;;5012199;28;20449;-45
2021/05/25 08:22:47;;;;;;;2.20;1.30;;;14.50;99.90;;;;;;5012616;28;20452;-45
2021/05/25 08:25:14;;;;;;;1.23;1.10;;;14.60;99.90;;;;;;5013718;28;20896;-46
2021/05/25 08:27:41;;;;;;;2.63;1.30;;;14.70;99.90;;;;;;5013349;28;20453;-45
2021/05/25 08:30:09;;;;;;;4.43;1.20;;;14.80;99.90;;;;;;5013350;28;20449;-46
2021/05/25 08:32:36;;;;;;;1.20;1.10;;;14.80;99.90;;;;;;5012433;28;20457;-49
2021/05/25 08:35:04;;;;;;;1.40;1.00;;;14.80;99.90;;;;;;5012894;28;20543;-46
2021/05/25 08:37:32;;;;;;;1.97;1.50;;;14.60;99.90;;;;;;5012746;28;20974;-45
2021/05/25 08:39:58;;;;;;;3.00;1.10;;;14.50;99.90;;;;;;5008551;28;20456;-46
2021/05/25 08:42:24;;;;;;;2.53;1.57;;;14.50;99.90;;;;;;5013228;28;20480;-43
2021/05/25 08:44:51;;;;;;;1.87;1.40;;;14.50;99.90;;;;;;5013635;28;20515;-44
2021/05/25 08:47:17;;;;;;;1.83;1.20;;;14.60;99.90;;;;;;5013636;28;20938;-48
2021/05/25 08:49:46;;;;;;;1.83;1.20;;;14.80;99.90;;;;;;5014869;28;20764;-45
2021/05/25 08:52:14;;;;;;;2.10;1.40;;;15.10;99.90;;;;;;5012994;28;20453;-48
2021/05/25 08:54:42;;;;;;;1.83;1.20;;;15.50;99.90;;;;;;5011142;28;20515;-45
2021/05/25 08:57:08;;;;;;;2.30;1.30;;;15.80;99.90;;;;;;5013119;28;20491;-49
2021/05/25 08:59:36;;;;;;;1.20;1.10;;;15.80;99.90;;;;;;5013341;28;20449;-45
2021/05/25 09:02:02;;;;;;;1.40;1.27;;;15.70;99.90;;;;;;5020411;28;20855;-50
2021/05/25 09:04:28;;;;;;;2.63;1.57;;;15.50;99.90;;;;;;5012339;28;20932;-49
2021/05/25 09:06:57;;;;;;;3.60;3.10;;;15.40;99.90;;;;;;5013343;28;20790;-46
2021/05/25 09:09:24;;;;;;;3.03;1.57;;;15.30;99.90;;;;;;5012714;28;20445;-51
2021/05/25 09:12:00;;;;;;;2.07;1.00;;;15.50;99.90;;;;;;5013215;28;20535;-45
2021/05/25 09:14:27;;;;;;;2.23;1.20;;;15.60;99.90;;;;;;5012111;28;20512;-45
2021/05/25 09:17:18;;;;;;;4.63;1.83;;;15.70;99.90;;;;;;5013465;28;20951;-48
2021/05/25 09:19:46;;;;;;;1.70;1.30;;;16.00;99.90;;;;;;5013045;28;20441;-44
2021/05/25 09:22:29;;;;;;;2.83;1.23;;;16.20;99.90;;;;;;5013149;28;20441;-44
2021/05/25 09:24:56;;;;;;;2.03;1.27;;;16.20;99.90;;;;;;5013934;28;20903;-45
2021/05/25 09:27:31;;;;;;;4.97;1.33;;;16.20;99.90;;;;;;5014087;28;20822;-46
2021/05/25 09:30:18;;;;;;;1.40;0.90;;;16.70;99.90;;;;;;5014108;28;20463;-48
2021/05/25 09:32:50;;;;;;;1.77;1.20;;;17.50;99.90;;;;;;5017178;28;20460;-45
2021/05/25 09:35:17;;;;;;;1.73;1.20;;;18.70;99.90;;;;;;5017268;28;20523;-44
2021/05/25 09:37:46;;;;;;;2.20;1.57;;;19.90;95.70;;;;;;5016850;28;20484;-51
2021/05/25 09:40:15;;;;;;;1.60;1.30;;;20.20;93.40;;;;;;5017167;28;20445;-45
2021/05/25 09:42:41;;;;;;;2.27;1.83;;;20.10;92.10;;;;;;5017319;28;20425;-48
2021/05/25 09:45:11;;;;;;;1.67;1.53;;;20.10;91.30;;;;;;5020706;28;20830;-45
2021/05/25 09:47:40;;;;;;;3.40;1.87;;;20.50;90.70;;;;;;5019282;28;20595;-50
2021/05/25 09:50:08;;;;;;;3.33;1.63;;;21.40;88.40;;;;;;5017898;28;20444;-48
2021/05/25 09:52:35;;;;;;;2.70;1.47;;;22.80;82.10;;;;;;5016832;28;20989;-52
2021/05/25 09:55:11;;;;;;;4.80;1.47;;;23.20;73.70;;;;;;5016775;28;20966;-48
2021/05/25 09:57:49;;;;;;;1.57;1.07;;;23.90;71.50;;;;;;5016798;28;20448;-48
2021/05/25 10:00:30;;;;;;;2.27;1.10;;;24.60;67.10;;;;;;5016864;28;20471;-48
2021/05/25 10:03:13;;;;;;;1.97;1.33;;;25.20;60.50;;;;;;5017058;28;20476;-50
2021/05/25 10:05:40;;;;;;;2.70;1.70;;;25.60;58.30;;;;;;5016496;28;20883;-50
2021/05/25 10:08:07;;;;;;;1.53;1.27;;;25.60;55.40;;;;;;5016330;28;20465;-49
2021/05/25 10:10:35;;;;;;;3.90;1.60;;;25.40;55.10;;;;;;5016445;28;20459;-49
2021/05/25 10:13:03;;;;;;;4.43;1.40;;;24.90;55.60;;;;;;5016770;28;20453;-49
2021/05/25 10:15:29;;;;;;;2.07;1.47;;;23.80;55.50;;;;;;5016242;28;20545;-45
2021/05/25 10:18:10;;;;;;;2.20;1.50;;;22.50;57.00;;;;;;5016660;28;20469;-48
2021/05/25 10:20:37;;;;;;;2.23;1.20;;;21.30;58.60;;;;;;5016692;28;20495;-47
2021/05/25 10:23:04;;;;;;;2.33;1.20;;;20.10;60.90;;;;;;5017254;28;20456;-46
2021/05/25 10:25:35;;;;;;;1.83;1.30;;;19.20;65.30;;;;;;5016358;28;20444;-47
2021/05/25 10:28:07;;;;;;;1.47;1.10;;;18.70;69.00;;;;;;5016453;28;20434;-47
2021/05/25 10:30:45;;;;;;;5.30;1.10;;;18.50;72.10;;;;;;5016246;28;20511;-46
2021/05/25 10:33:31;;;;;;;2.73;1.60;;;18.60;73.40;;;;;;5015958;28;20916;-51
2021/05/25 10:36:06;;;;;;;2.67;1.40;;;18.60;72.60;;;;;;5015915;28;20473;-45
2021/05/25 10:38:52;;;;;;;5.23;1.10;;;18.60;72.40;;;;;;5016472;28;20809;-46
2021/05/25 10:41:26;;;;;;;1.40;1.10;;;18.40;72.10;;;;;;5015981;28;20433;-45
2021/05/25 10:43:53;;;;;;;2.90;1.60;;;18.30;71.60;;;;;;5015869;28;20733;-46
2021/05/25 10:46:23;;;;;;;2.50;1.07;;;18.20;73.20;;;;;;5016057;28;20522;-49
2021/05/25 10:48:58;;;;;;;1.50;1.00;;;18.10;77.20;;;;;;5016036;28;20637;-49
2021/05/25 10:52:13;;;;;;;4.73;1.23;;;17.80;82.60;;;;;;5016669;28;20433;-45
2021/05/25 10:54:58;;;;;;;1.30;1.00;;;17.60;89.20;;;;;;5015201;28;20465;-45
2021/05/25 10:57:35;;;;;;;2.53;1.30;;;17.10;91.30;;;;;;5015822;28;20437;-45
2021/05/25 11:00:09;;;;;;;1.90;1.00;;;16.70;96.10;;;;;;5016361;28;20436;-47
2021/05/25 11:02:52;;;;;;;1.90;1.00;;;16.20;99.90;;;;;;5018466;28;20758;-48
2021/05/25 11:05:45;;;;;;;7.23;1.20;;;15.50;99.90;;;;;;5018263;28;20472;-48
2021/05/25 11:08:24;;;;;;;1.77;1.27;;;15.40;99.90;;;;;;5017448;28;20441;-45
2021/05/25 11:10:53;;;;;;;1.47;0.80;;;15.30;99.90;;;;;;5017609;28;20796;-45
2021/05/25 11:13:26;;;;;;;1.70;1.20;;;15.60;99.90;;;;;;5017716;28;20455;-44
2021/05/25 11:16:05;;;;;;;1.77;1.00;;;15.90;99.90;;;;;;5017782;28;20480;-44
2021/05/25 11:18:36;;;;;;;1.63;1.23;;;16.20;99.90;;;;;;5017864;28;20440;-47
2021/05/25 11:21:15;;;;;;;3.50;1.60;;;16.40;99.90;;;;;;5017632;28;20640;-45
2021/05/25 11:23:42;;;;;;;4.00;3.40;;;16.90;99.90;;;;;;5017467;28;20437;-47
2021/05/25 11:26:09;;;;;;;1.77;1.40;;;17.00;99.90;;;;;;5017978;28;20475;-45
2021/05/25 11:29:15;;;;;;;3.27;1.10;;;16.90;99.90;;;;;;5023717;28;20453;-44
2021/05/25 11:31:42;;;;;;;2.00;1.47;;;16.70;99.90;;;;;;5024707;28;20433;-43
2021/05/25 11:34:09;;;;;;;1.47;1.10;;;16.60;99.90;;;;;;5018553;28;20441;-44
2021/05/25 11:36:35;;;;;;;2.50;1.50;;;16.60;99.90;;;;;;5019779;28;20476;-45
2021/05/25 11:39:04;;;;;;;3.93;1.40;;;16.50;99.90;;;;;;5019652;28;20464;-45
2021/05/25 11:41:31;;;;;;;1.23;1.13;;;16.50;99.90;;;;;;5019678;28;20822;-46
2021/05/25 11:44:09;;;;;;;3.17;1.30;;;16.50;99.90;;;;;;5023168;28;20452;-44
2021/05/25 11:46:44;;;;;;;1.67;1.00;;;16.40;99.90;;;;;;5017606;28;20449;-44
2021/05/25 11:49:11;;;;;;;1.83;1.17;;;16.40;99.90;;;;;;5016906;28;20445;-45
2021/05/25 11:51:38;;;;;;;5.83;1.20;;;16.50;99.90;;;;;;5018047;28;20457;-44
2021/05/25 11:54:15;;;;;;;3.83;0.93;;;16.90;99.90;;;;;;5017591;28;20452;-50
2021/05/25 11:56:47;;;;;;;1.23;1.10;;;16.90;99.90;;;;;;5018270;28;20455;-45
2021/05/25 11:59:16;;;;;;;2.60;1.17;;;17.30;99.90;;;;;;5016340;28;20478;-45
2021/05/25 12:01:46;;;;;;;1.27;0.97;;;17.70;98.60;;;;;;5016936;28;20928;-45
2021/05/25 12:04:13;;;;;;;3.13;1.83;;;18.00;95.80;;;;;;5016775;28;20833;-49
2021/05/25 12:06:50;;;;;;;1.60;0.83;;;18.10;91.80;;;;;;5016536;28;20460;-49
2021/05/25 12:09:17;;;;;;;2.90;1.00;;;18.30;91.70;;;;;;5016441;28;20429;-47
2021/05/25 12:11:45;;;;;;;4.40;1.30;;;18.40;88.90;;;;;;5014913;28;20926;-50
2021/05/25 12:14:13;;;;;;;1.60;1.00;;;18.20;86.50;;;;;;5014546;28;20456;-49
2021/05/25 12:16:40;;;;;;;2.50;1.30;;;17.90;87.40;;;;;;5014663;28;21059;-44
2021/05/25 12:19:08;;;;;;;6.07;1.17;;;17.70;88.20;;;;;;5014186;28;20449;-48
2021/05/25 12:21:35;;;;;;;2.60;1.23;;;17.40;90.70;;;;;;5014079;28;20876;-47
2021/05/25 12:24:01;;;;;;;4.70;1.53;;;17.40;91.80;;;;;;5014656;28;20473;-45
2021/05/25 12:26:28;;;;;;;2.80;1.27;;;17.50;92.60;;;;;;5014371;28;20464;-45
2021/05/25 12:28:56;;;;;;;2.13;1.23;;;17.60;92.10;;;;;;5014280;28;20480;-45
2021/05/25 12:31:28;;;;;;;2.50;1.10;;;17.70;91.60;;;;;;5014407;28;20800;-45
2021/05/25 12:33:55;;;;;;;1.40;0.90;;;17.80;88.30;;;;;;5014193;28;20441;-47
2021/05/25 12:36:29;;;;;;;1.63;1.20;;;17.90;81.30;;;;;;5013183;28;21004;-46
2021/05/25 12:38:58;;;;;;;1.30;1.10;;;17.90;80.10;;;;;;5013510;28;20868;-44
2021/05/25 12:41:24;;;;;;;2.50;1.10;;;17.90;76.80;;;;;;5013323;28;20457;-45
2021/05/25 12:44:05;;;;;;;1.00;0.87;;;18.00;76.80;;;;;;5012241;28;20449;-52
2021/05/25 12:46:31;;;;;;;1.17;1.00;;;18.20;78.10;;;;;;5011114;28;20460;-47
2021/05/25 12:48:58;;;;;;;1.50;1.03;;;18.30;79.70;;;;;;5013353;28;20453;-47
2021/05/25 12:51:26;;;;;;;1.30;1.10;;;18.30;79.50;;;;;;5012901;28;20472;-44
2021/05/25 12:53:54;;;;;;;4.63;1.27;;;18.20;80.70;;;;;;5012228;28;20962;-47
2021/05/25 12:56:22;;;;;;;2.67;1.07;;;18.10;81.50;;;;;;5012650;28;20476;-44